Orlando, Florida
Traffic Map
Current Weather Conditions
Orlando, Florida
Clear
Clear
72°
Feels Like: 72°
Wind Chill: 72° Ceiling: Unl
Heat Index: 72° Visibility: 10mi
Dew Point: 67° Wind: 0mph
Humidity: 84% Direction: ° ()
Pressure: 29.94in Gusts: 0mph
Raw Report DataKORL 210953Z AUTO 00000KT 10SM CLR 22/19 A2994 RMK AO2 SLP141 T02220194
Traffic Incident Summary
Active as of:
Severity:
Category:
InformationThere was an issue retrieving the traffic information for this location. Please try a different location or try again shortly.
Advertisements
Track Severe Weather on mobile